createdAt,value
2022-08-03T00:00:35.410Z,22.00
2022-08-03T00:03:05.425Z,22.10
2022-08-03T00:05:34.300Z,22.10
2022-08-03T00:08:02.744Z,22.00
2022-08-03T00:10:32.806Z,22.00
2022-08-03T00:13:00.937Z,22.00
2022-08-03T00:15:29.248Z,22.00
2022-08-03T00:17:57.529Z,21.90
2022-08-03T00:20:27.260Z,21.90
2022-08-03T00:22:55.506Z,21.90
2022-08-03T00:25:23.948Z,21.90
2022-08-03T00:27:52.485Z,21.80
2022-08-03T00:30:20.877Z,21.80
2022-08-03T00:32:49.520Z,21.80
2022-08-03T00:35:32.467Z,21.70
2022-08-03T00:38:08.387Z,21.70
2022-08-03T00:40:36.883Z,21.60
2022-08-03T00:43:07.402Z,21.60
2022-08-03T00:45:37.591Z,21.60
2022-08-03T00:48:19.278Z,21.60
2022-08-03T00:50:56.569Z,21.50
2022-08-03T00:53:26.841Z,21.50
2022-08-03T00:55:55.054Z,21.40
2022-08-03T00:58:24.340Z,21.40
2022-08-03T01:00:52.783Z,21.40
2022-08-03T01:03:21.205Z,21.40
2022-08-03T01:05:57.371Z,21.40
2022-08-03T01:08:37.161Z,21.40
2022-08-03T01:11:11.630Z,21.30
2022-08-03T01:14:03.741Z,21.30
2022-08-03T01:16:45.144Z,21.20
2022-08-03T01:19:30.952Z,21.20
2022-08-03T01:22:09.695Z,21.10
2022-08-03T01:24:51.877Z,21.10
2022-08-03T01:27:24.536Z,21.10
2022-08-03T01:30:01.116Z,21.10
2022-08-03T01:32:58.121Z,21.10
2022-08-03T01:35:30.613Z,21.10
2022-08-03T01:38:02.205Z,21.10
2022-08-03T01:40:33.577Z,21.10
2022-08-03T01:43:04.516Z,21.10
2022-08-03T01:45:35.531Z,21.10
2022-08-03T01:48:04.804Z,21.10
2022-08-03T01:50:34.482Z,21.10
2022-08-03T01:53:03.694Z,21.10
2022-08-03T01:55:34.123Z,21.10
2022-08-03T01:58:06.850Z,21.10
2022-08-03T02:00:37.928Z,21.10
2022-08-03T02:03:07.928Z,21.10
2022-08-03T02:05:37.190Z,21.10
2022-08-03T02:08:07.445Z,21.00
2022-08-03T02:10:37.810Z,21.00
2022-08-03T02:13:09.014Z,21.00
2022-08-03T02:15:40.096Z,21.00
2022-08-03T02:18:10.846Z,21.00
2022-08-03T02:20:40.423Z,20.90
2022-08-03T02:23:09.013Z,20.90
2022-08-03T02:25:43.253Z,20.80
2022-08-03T02:28:16.500Z,20.70
2022-08-03T02:30:55.766Z,20.70
2022-08-03T02:33:28.335Z,20.70
2022-08-03T02:35:58.687Z,20.70
2022-08-03T02:38:35.718Z,20.70
2022-08-03T02:41:09.014Z,20.70
2022-08-03T02:44:05.358Z,20.70
2022-08-03T02:46:33.869Z,20.70
2022-08-03T02:49:41.462Z,20.70
2022-08-03T02:51:54.509Z,20.70
2022-08-03T02:54:25.024Z,20.60
2022-08-03T02:56:55.322Z,20.60
2022-08-03T02:59:24.571Z,20.60
2022-08-03T03:01:55.869Z,20.60
2022-08-03T03:04:26.359Z,20.60
2022-08-03T03:07:03.659Z,20.60
2022-08-03T03:09:40.446Z,20.50
2022-08-03T03:12:13.232Z,20.50
2022-08-03T03:14:42.056Z,20.50
2022-08-03T03:17:13.309Z,20.50
2022-08-03T03:19:42.876Z,20.40
2022-08-03T03:22:12.117Z,20.40
2022-08-03T03:24:42.877Z,20.40
2022-08-03T03:27:11.446Z,20.40
2022-08-03T03:29:45.067Z,20.40
2022-08-03T03:32:15.257Z,20.30
2022-08-03T03:34:44.807Z,20.30
2022-08-03T03:37:13.122Z,20.30
2022-08-03T03:39:41.355Z,20.30
2022-08-03T03:42:09.708Z,20.20
2022-08-03T03:44:38.104Z,20.30
2022-08-03T03:47:06.363Z,20.20
2022-08-03T03:49:38.188Z,20.30
2022-08-03T03:52:07.321Z,20.20
2022-08-03T03:54:42.653Z,20.20
2022-08-03T03:57:13.135Z,20.20
2022-08-03T03:59:43.102Z,20.20
2022-08-03T04:02:12.851Z,20.30
2022-08-03T04:04:59.972Z,20.20
2022-08-03T04:07:46.500Z,20.20
2022-08-03T04:10:35.832Z,20.20
2022-08-03T04:13:08.364Z,20.20
2022-08-03T04:15:38.987Z,20.20
2022-08-03T04:18:09.833Z,20.10
2022-08-03T04:20:42.004Z,20.10
2022-08-03T04:23:15.446Z,20.10
2022-08-03T04:25:45.534Z,20.10
2022-08-03T04:28:31.202Z,20.10
2022-08-03T04:31:02.463Z,20.10
2022-08-03T04:33:32.487Z,20.20
2022-08-03T04:36:05.436Z,20.10
2022-08-03T04:38:39.297Z,20.20
2022-08-03T04:41:10.168Z,20.20
2022-08-03T04:43:40.916Z,20.20
2022-08-03T04:46:10.692Z,20.20
2022-08-03T04:48:42.368Z,20.20
2022-08-03T04:51:15.221Z,20.20
2022-08-03T04:53:45.264Z,20.20
2022-08-03T04:56:14.008Z,20.20
2022-08-03T04:58:42.326Z,20.20
2022-08-03T05:01:10.693Z,20.20
2022-08-03T05:03:39.244Z,20.20
2022-08-03T05:06:07.986Z,20.30
2022-08-03T05:08:47.114Z,20.30
2022-08-03T05:11:17.154Z,20.30
2022-08-03T05:13:45.712Z,20.30
2022-08-03T05:16:15.211Z,20.40
2022-08-03T05:18:44.229Z,20.40
2022-08-03T05:21:14.130Z,20.40
2022-08-03T05:23:43.940Z,20.50
2022-08-03T05:26:12.981Z,20.50
2022-08-03T05:28:50.856Z,20.50
2022-08-03T05:31:20.312Z,20.60
2022-08-03T05:33:49.140Z,20.60
2022-08-03T05:36:17.715Z,20.70
2022-08-03T05:38:47.467Z,20.70
2022-08-03T05:41:22.580Z,20.80
2022-08-03T05:43:52.929Z,20.80
2022-08-03T05:46:21.806Z,20.90
2022-08-03T05:48:49.995Z,20.90
2022-08-03T05:51:18.684Z,21.00
2022-08-03T05:53:48.487Z,21.00
2022-08-03T05:56:17.121Z,21.10
2022-08-03T05:58:46.909Z,21.10
2022-08-03T06:01:16.108Z,21.10
2022-08-03T06:03:44.456Z,21.20
2022-08-03T06:06:13.167Z,21.20
2022-08-03T06:08:41.547Z,21.30
2022-08-03T06:11:11.398Z,21.40
2022-08-03T06:13:40.298Z,21.40
2022-08-03T06:16:08.906Z,21.50
2022-08-03T06:18:37.706Z,21.60
2022-08-03T06:21:14.891Z,21.70
2022-08-03T06:23:54.516Z,21.80
2022-08-03T06:26:26.385Z,21.80
2022-08-03T06:28:55.347Z,21.90
2022-08-03T06:31:33.090Z,22.00
2022-08-03T06:34:32.803Z,22.10
2022-08-03T06:37:01.517Z,22.20
2022-08-03T06:39:30.772Z,22.30
2022-08-03T06:42:00.508Z,22.50
2022-08-03T06:44:28.725Z,22.60
2022-08-03T06:46:56.980Z,22.80
2022-08-03T06:49:25.422Z,22.90
2022-08-03T06:52:04.887Z,23.10
2022-08-03T06:54:36.452Z,23.30
2022-08-03T06:57:08.373Z,23.40
2022-08-03T07:00:06.450Z,23.40
2022-08-03T07:02:25.054Z,23.60
2022-08-03T07:04:56.596Z,23.80
2022-08-03T07:07:24.837Z,24.00
2022-08-03T07:09:57.063Z,24.10
2022-08-03T07:12:29.016Z,24.20
2022-08-03T07:15:01.408Z,24.50
2022-08-03T07:17:32.013Z,24.70
2022-08-03T07:20:01.030Z,24.80
2022-08-03T07:22:29.599Z,24.90
2022-08-03T07:24:58.099Z,25.20
2022-08-03T07:27:29.371Z,25.30
2022-08-03T07:29:58.411Z,25.70
2022-08-03T07:32:27.137Z,25.60
2022-08-03T07:35:00.104Z,26.10
2022-08-03T07:37:35.251Z,26.20
2022-08-03T07:40:05.052Z,26.40
2022-08-03T07:42:35.069Z,26.40
2022-08-03T07:45:08.259Z,26.60
2022-08-03T07:47:53.245Z,26.80
2022-08-03T07:50:23.310Z,27.20
2022-08-03T07:52:53.618Z,27.50
2022-08-03T07:55:25.413Z,28.10
2022-08-03T07:58:07.750Z,29.00
2022-08-03T08:00:36.331Z,29.50
2022-08-03T08:03:04.866Z,29.90
2022-08-03T08:05:33.952Z,30.20
2022-08-03T08:08:02.415Z,30.50
2022-08-03T08:10:30.920Z,31.10
2022-08-03T08:12:59.613Z,31.00
2022-08-03T08:15:29.355Z,31.30
2022-08-03T08:18:02.488Z,31.60
2022-08-03T08:20:34.913Z,31.40
2022-08-03T08:23:36.242Z,31.70
2022-08-03T08:25:57.939Z,31.90
2022-08-03T08:28:32.164Z,32.50
2022-08-03T08:31:03.438Z,32.90
2022-08-03T08:36:20.317Z,34.20
2022-08-03T08:38:49.558Z,34.00
2022-08-03T08:41:18.390Z,34.10
2022-08-03T08:43:46.632Z,34.00
2022-08-03T08:46:23.515Z,34.40
2022-08-03T08:48:53.439Z,34.50
2022-08-03T08:51:23.278Z,34.70
2022-08-03T08:53:54.271Z,35.00
2022-08-03T08:56:25.572Z,35.70
2022-08-03T08:59:01.177Z,35.50
2022-08-03T09:01:31.288Z,35.30
2022-08-03T09:03:59.636Z,35.70
2022-08-03T09:06:27.948Z,36.20
2022-08-03T09:08:56.297Z,36.00
2022-08-03T09:11:51.689Z,36.40
2022-08-03T09:14:34.417Z,36.70
2022-08-03T09:17:04.845Z,37.30
2022-08-03T09:19:34.493Z,36.90
2022-08-03T09:22:10.956Z,37.00
2022-08-03T09:24:41.813Z,36.90
2022-08-03T09:27:14.503Z,36.70
2022-08-03T09:29:43.362Z,36.50
2022-08-03T09:32:14.902Z,37.20
2022-08-03T09:34:44.467Z,37.90
2022-08-03T09:37:16.416Z,37.90
2022-08-03T09:39:45.558Z,38.00
2022-08-03T09:42:15.684Z,38.00
2022-08-03T09:44:45.702Z,37.80
2022-08-03T09:47:18.008Z,37.70
2022-08-03T09:50:02.256Z,37.50
2022-08-03T09:52:49.426Z,37.10
2022-08-03T09:56:30.872Z,36.90
2022-08-03T09:58:10.448Z,37.30
2022-08-03T10:00:55.251Z,37.80
2022-08-03T10:03:25.743Z,37.50
2022-08-03T10:05:59.381Z,37.60
2022-08-03T10:08:28.266Z,37.90
2022-08-03T10:10:58.748Z,38.40
2022-08-03T10:13:27.195Z,38.60
2022-08-03T10:16:23.663Z,38.70
2022-08-03T10:18:45.243Z,38.80
2022-08-03T10:21:18.555Z,38.60
2022-08-03T10:23:49.350Z,38.80
2022-08-03T10:26:22.799Z,39.30
2022-08-03T10:28:53.155Z,39.70
2022-08-03T10:31:23.746Z,40.10
2022-08-03T10:33:59.301Z,40.20
2022-08-03T10:36:31.723Z,40.20
2022-08-03T10:39:01.558Z,40.30
2022-08-03T10:41:35.693Z,40.50
2022-08-03T10:44:07.989Z,40.70
2022-08-03T10:46:41.509Z,40.50
2022-08-03T10:49:17.190Z,40.60
2022-08-03T10:52:09.689Z,40.40
2022-08-03T10:54:57.277Z,40.50
2022-08-03T10:57:47.412Z,40.70
2022-08-03T11:00:18.695Z,40.70
2022-08-03T11:03:10.493Z,40.60
2022-08-03T11:05:42.127Z,40.40
2022-08-03T11:08:31.408Z,40.10
2022-08-03T11:11:02.721Z,39.80
2022-08-03T11:13:33.995Z,39.60
2022-08-03T11:16:07.211Z,39.70
2022-08-03T11:18:37.861Z,39.90
2022-08-03T11:21:08.660Z,40.40
2022-08-03T11:24:02.889Z,40.70
2022-08-03T11:26:34.615Z,40.80
2022-08-03T11:29:30.496Z,40.90
2022-08-03T11:31:58.903Z,41.20
2022-08-03T11:34:27.637Z,41.10
2022-08-03T11:37:25.196Z,41.30
2022-08-03T11:39:57.250Z,41.40
2022-08-03T11:42:48.384Z,41.40
2022-08-03T11:45:17.982Z,41.00
2022-08-03T11:47:50.527Z,40.70
2022-08-03T11:50:21.505Z,40.80
2022-08-03T11:52:52.101Z,40.90
2022-08-03T11:55:22.021Z,40.90
2022-08-03T11:59:11.319Z,40.50
2022-08-03T12:00:38.886Z,40.60
2022-08-03T12:03:09.579Z,40.40
2022-08-03T12:05:40.013Z,40.30
2022-08-03T12:08:11.078Z,40.40
2022-08-03T12:10:41.691Z,40.50
2022-08-03T12:14:35.719Z,40.40
2022-08-03T12:15:59.856Z,40.50
2022-08-03T12:18:28.215Z,40.30
2022-08-03T12:21:06.741Z,39.50
2022-08-03T12:23:37.930Z,39.30
2022-08-03T12:26:07.944Z,39.30
2022-08-03T12:28:38.431Z,39.40
2022-08-03T12:31:09.403Z,39.60
2022-08-03T12:34:03.376Z,39.60
2022-08-03T12:36:33.800Z,39.70
2022-08-03T12:39:05.866Z,39.80
2022-08-03T12:41:35.512Z,39.80
2022-08-03T12:44:04.715Z,39.50
2022-08-03T12:46:35.389Z,39.40
2022-08-03T12:49:06.865Z,39.30
2022-08-03T12:51:36.986Z,39.50
2022-08-03T12:54:07.090Z,39.50
2022-08-03T12:56:35.607Z,39.40
2022-08-03T12:59:32.376Z,39.40
2022-08-03T13:02:09.671Z,39.20
2022-08-03T13:04:39.103Z,38.70
2022-08-03T13:07:14.153Z,38.90
2022-08-03T13:09:50.231Z,38.80
2022-08-03T13:12:20.942Z,38.50
2022-08-03T13:14:52.551Z,38.40
2022-08-03T13:17:21.582Z,38.30
2022-08-03T13:19:52.500Z,37.60
2022-08-03T13:22:22.717Z,37.50
2022-08-03T13:24:55.906Z,37.50
2022-08-03T13:28:12.470Z,37.60
2022-08-03T13:30:13.449Z,37.60
2022-08-03T13:32:46.550Z,37.60
2022-08-03T13:35:16.467Z,37.40
2022-08-03T13:37:47.434Z,37.30
2022-08-03T13:40:19.002Z,36.20
2022-08-03T13:42:52.145Z,36.40
2022-08-03T13:45:20.331Z,36.10
2022-08-03T13:47:49.686Z,36.20
2022-08-03T13:50:17.951Z,36.20
2022-08-03T13:52:46.909Z,36.10
2022-08-03T13:55:15.687Z,36.50
2022-08-03T13:58:02.453Z,36.50
2022-08-03T14:00:33.778Z,36.40
2022-08-03T14:03:10.849Z,36.30
2022-08-03T14:05:41.630Z,36.40
2022-08-03T14:08:09.968Z,36.40
2022-08-03T14:10:40.344Z,36.00
2022-08-03T14:13:11.831Z,36.00
2022-08-03T14:15:40.246Z,35.90
2022-08-03T14:18:12.713Z,35.50
2022-08-03T14:20:50.019Z,35.40
2022-08-03T14:23:22.793Z,35.30
2022-08-03T14:25:52.754Z,35.20
2022-08-03T14:28:23.882Z,35.20
2022-08-03T14:30:52.987Z,34.90
2022-08-03T14:33:21.570Z,35.10
2022-08-03T14:35:50.572Z,34.90
2022-08-03T14:38:19.509Z,34.90
2022-08-03T14:40:48.041Z,34.70
2022-08-03T14:43:17.874Z,34.90
2022-08-03T14:45:47.856Z,35.00
2022-08-03T14:50:28.953Z,34.90
2022-08-03T14:51:04.278Z,34.70
2022-08-03T14:53:32.667Z,34.60
2022-08-03T14:56:00.955Z,34.60
2022-08-03T14:58:29.325Z,34.60
2022-08-03T15:00:58.987Z,34.70
2022-08-03T15:03:27.446Z,34.60
2022-08-03T15:05:57.133Z,34.30
2022-08-03T15:08:27.192Z,34.30
2022-08-03T15:10:55.974Z,34.20
2022-08-03T15:13:27.895Z,34.00
2022-08-03T15:15:57.748Z,33.90
2022-08-03T15:18:27.420Z,33.50
2022-08-03T15:20:55.614Z,33.70
2022-08-03T15:23:23.821Z,33.50
2022-08-03T15:26:29.034Z,33.30
2022-08-03T15:28:40.424Z,33.40
2022-08-03T15:31:08.652Z,33.20
2022-08-03T15:33:39.975Z,33.30
2022-08-03T15:36:08.510Z,33.00
2022-08-03T15:38:36.594Z,33.00
2022-08-03T15:41:04.795Z,33.00
2022-08-03T15:43:36.421Z,32.90
2022-08-03T15:48:57.484Z,32.70
2022-08-03T15:51:25.644Z,32.70
2022-08-03T15:53:54.217Z,32.70
2022-08-03T15:56:22.504Z,32.50
2022-08-03T15:58:59.648Z,32.50
2022-08-03T16:01:39.057Z,32.40
2022-08-03T16:04:08.919Z,32.30
2022-08-03T16:06:37.138Z,32.20
2022-08-03T16:09:23.494Z,32.30
2022-08-03T16:11:56.206Z,32.30
2022-08-03T16:14:34.863Z,32.30
2022-08-03T16:17:08.737Z,32.20
2022-08-03T16:19:38.357Z,32.10
2022-08-03T16:22:07.021Z,32.00
2022-08-03T16:24:35.359Z,31.90
2022-08-03T16:27:06.199Z,31.90
2022-08-03T16:29:43.852Z,31.90
2022-08-03T16:32:12.238Z,31.70
2022-08-03T16:34:42.113Z,31.70
2022-08-03T16:37:36.577Z,31.70
2022-08-03T16:39:59.069Z,31.80
2022-08-03T16:42:27.688Z,31.70
2022-08-03T16:44:55.948Z,31.60
2022-08-03T16:47:24.259Z,31.50
2022-08-03T16:49:56.443Z,31.50
2022-08-03T16:52:25.310Z,31.50
2022-08-03T16:54:55.093Z,31.40
2022-08-03T16:57:55.872Z,31.40
2022-08-03T17:00:34.265Z,31.30
2022-08-03T17:03:04.478Z,31.20
2022-08-03T17:05:47.420Z,31.10
2022-08-03T17:08:16.379Z,31.10
2022-08-03T17:10:54.786Z,30.90
2022-08-03T17:13:38.757Z,30.90
2022-08-03T17:16:12.188Z,30.90
2022-08-03T17:18:52.494Z,30.80
2022-08-03T17:21:29.654Z,30.80
2022-08-03T17:24:12.288Z,30.70
2022-08-03T17:26:44.657Z,30.70
2022-08-03T17:29:18.477Z,30.70
2022-08-03T17:31:52.160Z,30.60
2022-08-03T17:34:26.692Z,30.40
2022-08-03T17:37:05.529Z,30.30
2022-08-03T17:42:31.163Z,30.20
2022-08-03T17:45:03.951Z,30.20
2022-08-03T17:47:42.229Z,30.20
2022-08-03T17:50:24.855Z,30.10
2022-08-03T17:53:07.669Z,30.00
2022-08-03T17:55:54.957Z,29.90
2022-08-03T17:58:38.152Z,29.90
2022-08-03T18:02:00.274Z,29.80
2022-08-03T18:04:29.691Z,29.80
2022-08-03T18:07:11.223Z,29.80
2022-08-03T18:10:03.451Z,29.80
2022-08-03T18:12:45.166Z,29.60
2022-08-03T18:15:21.370Z,29.50
2022-08-03T18:17:55.820Z,29.50
2022-08-03T18:20:34.483Z,29.40
2022-08-03T18:23:10.409Z,29.30
2022-08-03T18:28:30.645Z,29.10
2022-08-03T18:30:59.299Z,29.00
2022-08-03T18:34:16.308Z,29.00
2022-08-03T18:36:30.890Z,28.90
2022-08-03T18:39:03.968Z,28.90
2022-08-03T18:41:35.877Z,28.80
2022-08-03T18:44:06.951Z,28.80
2022-08-03T18:46:45.168Z,28.70
2022-08-03T18:49:24.786Z,28.70
2022-08-03T18:52:04.367Z,28.60
2022-08-03T18:54:58.986Z,28.60
2022-08-03T18:57:42.501Z,28.60
2022-08-03T19:00:15.751Z,28.50
2022-08-03T19:02:50.243Z,28.50
2022-08-03T19:05:21.756Z,28.50
2022-08-03T19:08:00.956Z,28.40
2022-08-03T19:10:34.193Z,28.30
2022-08-03T19:13:11.369Z,28.20
2022-08-03T19:15:51.196Z,28.20
2022-08-03T19:18:23.325Z,28.20
2022-08-03T19:20:54.716Z,28.20
2022-08-03T19:23:25.649Z,28.00
2022-08-03T19:25:54.424Z,27.90
2022-08-03T19:28:30.135Z,27.80
2022-08-03T19:33:57.620Z,27.70
2022-08-03T19:36:28.882Z,27.60
2022-08-03T19:38:58.035Z,27.60
2022-08-03T19:41:31.227Z,27.60
2022-08-03T19:44:20.175Z,27.50
2022-08-03T19:46:53.872Z,27.50
2022-08-03T19:49:49.677Z,27.40
2022-08-03T19:52:24.276Z,27.30
2022-08-03T19:55:00.438Z,27.20
2022-08-03T19:57:30.776Z,27.20
2022-08-03T20:00:03.471Z,27.10
2022-08-03T20:02:33.409Z,27.00
2022-08-03T20:05:02.242Z,26.90
2022-08-03T20:07:32.837Z,26.90
2022-08-03T20:10:02.901Z,26.70
2022-08-03T20:12:35.687Z,26.70
2022-08-03T20:15:10.902Z,26.70
2022-08-03T20:17:56.662Z,26.50
2022-08-03T20:20:28.816Z,26.40
2022-08-03T20:22:59.447Z,26.40
2022-08-03T20:25:38.423Z,26.40
2022-08-03T20:28:14.030Z,26.30
2022-08-03T20:30:47.152Z,26.20
2022-08-03T20:33:18.926Z,26.10
2022-08-03T20:35:49.997Z,26.00
2022-08-03T20:38:19.626Z,25.90
2022-08-03T20:40:49.000Z,25.80
2022-08-03T20:43:19.961Z,25.70
2022-08-03T20:45:59.734Z,25.70
2022-08-03T20:48:38.711Z,25.60
2022-08-03T20:51:19.616Z,25.50
2022-08-03T20:53:59.840Z,25.40
2022-08-03T20:56:33.996Z,25.40
2022-08-03T20:59:04.280Z,25.40
2022-08-03T21:01:36.310Z,25.30
2022-08-03T21:04:06.991Z,25.20
2022-08-03T21:06:39.687Z,25.10
2022-08-03T21:09:09.472Z,25.20
2022-08-03T21:11:44.343Z,25.10
2022-08-03T21:12:58.032Z,29.20
2022-08-03T21:13:10.762Z,27.70
2022-08-03T21:14:19.271Z,25.10
2022-08-03T21:16:52.594Z,25.10
2022-08-03T21:19:23.208Z,25.10
2022-08-03T21:21:51.655Z,25.00
2022-08-03T21:24:24.899Z,25.00
2022-08-03T21:26:55.768Z,25.00
2022-08-03T21:29:24.565Z,24.90
2022-08-03T21:31:54.388Z,24.90
2022-08-03T21:34:24.841Z,24.80
2022-08-03T21:36:53.130Z,24.80
2022-08-03T21:39:21.445Z,24.70
2022-08-03T21:41:49.768Z,24.70
2022-08-03T21:44:25.123Z,24.60
2022-08-03T21:47:00.253Z,24.60
2022-08-03T21:50:05.404Z,24.60
2022-08-03T21:52:23.385Z,24.50
2022-08-03T21:54:52.255Z,24.50
2022-08-03T21:57:23.283Z,24.50
2022-08-03T21:59:56.616Z,24.40
2022-08-03T22:02:31.385Z,24.30
2022-08-03T22:05:04.874Z,24.30
2022-08-03T22:07:33.638Z,24.20
2022-08-03T22:10:03.789Z,24.10
2022-08-03T22:12:33.424Z,24.10
2022-08-03T22:15:03.745Z,24.00
2022-08-03T22:17:54.573Z,23.90
2022-08-03T22:20:24.575Z,23.90
2022-08-03T22:22:57.023Z,23.80
2022-08-03T22:25:31.366Z,23.70
2022-08-03T22:28:01.698Z,23.70
2022-08-03T22:30:31.633Z,23.60
2022-08-03T22:33:03.417Z,23.60
2022-08-03T22:35:47.333Z,23.50
2022-08-03T22:38:17.853Z,23.50
2022-08-03T22:40:48.289Z,23.50
2022-08-03T22:43:16.685Z,23.50
2022-08-03T22:46:10.540Z,23.40
2022-08-03T22:48:40.932Z,23.40
2022-08-03T22:51:10.412Z,23.30
2022-08-03T22:53:39.752Z,23.30
2022-08-03T22:56:08.359Z,23.30
2022-08-03T22:58:36.581Z,23.20
2022-08-03T23:01:07.702Z,23.20
2022-08-03T23:04:00.129Z,23.20
2022-08-03T23:06:34.843Z,23.20
2022-08-03T23:09:10.147Z,23.20
2022-08-03T23:11:45.514Z,23.20
2022-08-03T23:14:16.329Z,23.10
2022-08-03T23:16:46.804Z,23.10
2022-08-03T23:19:25.170Z,23.10
2022-08-03T23:22:02.976Z,23.10
2022-08-03T23:24:36.071Z,23.00
2022-08-03T23:27:06.015Z,23.00
2022-08-03T23:29:37.283Z,22.90
2022-08-03T23:32:07.217Z,22.90
2022-08-03T23:34:58.129Z,22.90
2022-08-03T23:37:27.095Z,22.80
2022-08-03T23:39:58.187Z,22.80
2022-08-03T23:42:27.664Z,22.80
2022-08-03T23:45:04.719Z,22.80
2022-08-03T23:47:46.680Z,22.70
2022-08-03T23:50:18.170Z,22.70
2022-08-03T23:52:57.401Z,22.60
2022-08-03T23:55:41.299Z,22.60
2022-08-03T23:58:22.633Z,22.50
